Perch, North Carolina
Current Conditions -  °F | °C
As of 12:35 PM on Tuesday 21 Oct 2014 (Local Time) from KMWK Reporting Station
Scattered Clouds Scattered Clouds  
Wind Chill: 68°   Ceiling: Unl
Heat Index: 68°   Visibility: 10mi
Dew Point: 48°   Wind: 9mph
Humidity: 49%   Direction: 260°W
Pressure: 29.94"   Gusts: NA
Location:  36.3244°N, 80.463°W
Report Text: KMWK 211635Z AUTO 26008KT 240V310 10SM SCT050 20/09 A2994 RMK AO2 T02000090
Loading
Personal Weather Stations






























Interactive Weather Map
Tropical Storm Tracking
New forecast layout! Learn more

10-Day Weather Forecast

Advertisements
Track Severe Weather on mobile